sensor_id;sensor_type;location;lat;lon;timestamp;P1;durP1;ratioP1;P2;durP2;ratioP2
19808;SDS011;48538;32.784;-96.802;2023-04-25T00:00:28;6.22;;;2.83;;
19808;SDS011;48538;32.784;-96.802;2023-04-25T00:02:54;3.50;;;2.53;;
19808;SDS011;48538;32.784;-96.802;2023-04-25T00:05:25;4.50;;;2.47;;
19808;SDS011;48538;32.784;-96.802;2023-04-25T00:07:52;4.90;;;3.35;;
19808;SDS011;48538;32.784;-96.802;2023-04-25T00:10:19;7.43;;;2.75;;
19808;SDS011;48538;32.784;-96.802;2023-04-25T00:12:45;5.10;;;2.70;;
19808;SDS011;48538;32.784;-96.802;2023-04-25T00:15:13;6.80;;;3.53;;
19808;SDS011;48538;32.784;-96.802;2023-04-25T00:17:39;4.65;;;3.10;;
19808;SDS011;48538;32.784;-96.802;2023-04-25T00:20:06;7.50;;;2.60;;
19808;SDS011;48538;32.784;-96.802;2023-04-25T00:22:35;4.93;;;2.58;;
19808;SDS011;48538;32.784;-96.802;2023-04-25T00:25:05;5.97;;;2.70;;
19808;SDS011;48538;32.784;-96.802;2023-04-25T00:27:32;6.32;;;2.80;;
19808;SDS011;48538;32.784;-96.802;2023-04-25T00:29:58;3.53;;;2.20;;
19808;SDS011;48538;32.784;-96.802;2023-04-25T00:32:25;3.70;;;2.70;;
19808;SDS011;48538;32.784;-96.802;2023-04-25T00:34:51;5.18;;;2.55;;
19808;SDS011;48538;32.784;-96.802;2023-04-25T00:37:17;5.47;;;2.60;;
19808;SDS011;48538;32.784;-96.802;2023-04-25T00:39:45;4.18;;;3.08;;
19808;SDS011;48538;32.784;-96.802;2023-04-25T00:42:11;3.42;;;2.53;;
19808;SDS011;48538;32.784;-96.802;2023-04-25T00:44:37;3.83;;;2.85;;
19808;SDS011;48538;32.784;-96.802;2023-04-25T00:47:04;3.10;;;2.58;;
19808;SDS011;48538;32.784;-96.802;2023-04-25T00:49:31;6.55;;;2.70;;
19808;SDS011;48538;32.784;-96.802;2023-04-25T00:51:58;4.78;;;2.58;;
19808;SDS011;48538;32.784;-96.802;2023-04-25T00:54:24;4.75;;;2.80;;
19808;SDS011;48538;32.784;-96.802;2023-04-25T00:56:51;2.83;;;2.50;;
19808;SDS011;48538;32.784;-96.802;2023-04-25T00:59:18;3.45;;;2.30;;
19808;SDS011;48538;32.784;-96.802;2023-04-25T01:01:45;4.70;;;3.10;;
19808;SDS011;48538;32.784;-96.802;2023-04-25T01:04:12;3.33;;;2.72;;
19808;SDS011;48538;32.784;-96.802;2023-04-25T01:06:39;4.10;;;2.70;;
19808;SDS011;48538;32.784;-96.802;2023-04-25T01:09:06;3.90;;;2.65;;
19808;SDS011;48538;32.784;-96.802;2023-04-25T01:11:33;4.55;;;2.85;;
19808;SDS011;48538;32.784;-96.802;2023-04-25T01:13:59;11.15;;;3.72;;
19808;SDS011;48538;32.784;-96.802;2023-04-25T01:16:27;4.30;;;3.10;;
19808;SDS011;48538;32.784;-96.802;2023-04-25T01:18:53;5.07;;;3.20;;
19808;SDS011;48538;32.784;-96.802;2023-04-25T01:21:20;3.38;;;2.83;;
19808;SDS011;48538;32.784;-96.802;2023-04-25T01:23:46;3.20;;;2.83;;
19808;SDS011;48538;32.784;-96.802;2023-04-25T01:26:13;3.13;;;2.65;;
19808;SDS011;48538;32.784;-96.802;2023-04-25T01:28:40;7.45;;;3.58;;
19808;SDS011;48538;32.784;-96.802;2023-04-25T01:31:06;3.95;;;3.22;;
19808;SDS011;48538;32.784;-96.802;2023-04-25T01:33:33;4.40;;;2.67;;
19808;SDS011;48538;32.784;-96.802;2023-04-25T01:36:00;4.97;;;2.78;;
19808;SDS011;48538;32.784;-96.802;2023-04-25T01:38:26;5.35;;;3.00;;
19808;SDS011;48538;32.784;-96.802;2023-04-25T01:40:52;4.32;;;2.53;;
19808;SDS011;48538;32.784;-96.802;2023-04-25T01:43:20;4.13;;;3.20;;
19808;SDS011;48538;32.784;-96.802;2023-04-25T01:45:46;3.60;;;2.72;;
19808;SDS011;48538;32.784;-96.802;2023-04-25T01:48:14;8.05;;;3.35;;
19808;SDS011;48538;32.784;-96.802;2023-04-25T01:50:41;4.97;;;3.72;;
19808;SDS011;48538;32.784;-96.802;2023-04-25T01:53:09;5.38;;;3.55;;
19808;SDS011;48538;32.784;-96.802;2023-04-25T01:55:38;5.18;;;2.97;;
19808;SDS011;48538;32.784;-96.802;2023-04-25T01:58:04;7.20;;;3.60;;
19808;SDS011;48538;32.784;-96.802;2023-04-25T02:00:35;7.10;;;3.10;;
19808;SDS011;48538;32.784;-96.802;2023-04-25T02:03:06;5.80;;;3.22;;
19808;SDS011;48538;32.784;-96.802;2023-04-25T02:05:36;4.47;;;2.80;;
19808;SDS011;48538;32.784;-96.802;2023-04-25T02:08:04;6.03;;;3.00;;
19808;SDS011;48538;32.784;-96.802;2023-04-25T02:10:32;4.55;;;2.75;;
19808;SDS011;48538;32.784;-96.802;2023-04-25T02:12:59;8.48;;;3.22;;
19808;SDS011;48538;32.784;-96.802;2023-04-25T02:15:25;7.05;;;3.72;;
19808;SDS011;48538;32.784;-96.802;2023-04-25T02:17:52;5.80;;;2.95;;
19808;SDS011;48538;32.784;-96.802;2023-04-25T02:20:22;3.70;;;2.88;;
19808;SDS011;48538;32.784;-96.802;2023-04-25T02:22:49;6.03;;;2.78;;
19808;SDS011;48538;32.784;-96.802;2023-04-25T02:25:16;7.60;;;3.05;;
19808;SDS011;48538;32.784;-96.802;2023-04-25T02:27:45;3.00;;;2.40;;
19808;SDS011;48538;32.784;-96.802;2023-04-25T02:30:12;6.20;;;3.30;;
19808;SDS011;48538;32.784;-96.802;2023-04-25T02:32:39;5.63;;;3.67;;
19808;SDS011;48538;32.784;-96.802;2023-04-25T02:35:06;8.45;;;2.90;;
19808;SDS011;48538;32.784;-96.802;2023-04-25T02:37:33;4.20;;;2.70;;
19808;SDS011;48538;32.784;-96.802;2023-04-25T02:40:01;3.70;;;3.00;;
19808;SDS011;48538;32.784;-96.802;2023-04-25T02:42:29;9.90;;;3.40;;
19808;SDS011;48538;32.784;-96.802;2023-04-25T02:44:55;5.05;;;3.40;;
19808;SDS011;48538;32.784;-96.802;2023-04-25T02:47:22;5.72;;;3.03;;
19808;SDS011;48538;32.784;-96.802;2023-04-25T02:49:48;4.40;;;2.90;;
19808;SDS011;48538;32.784;-96.802;2023-04-25T02:52:14;5.18;;;3.20;;
19808;SDS011;48538;32.784;-96.802;2023-04-25T02:54:41;5.68;;;3.60;;
19808;SDS011;48538;32.784;-96.802;2023-04-25T02:57:07;5.25;;;3.30;;
19808;SDS011;48538;32.784;-96.802;2023-04-25T02:59:33;5.65;;;2.80;;
19808;SDS011;48538;32.784;-96.802;2023-04-25T03:02:00;6.93;;;3.72;;
19808;SDS011;48538;32.784;-96.802;2023-04-25T03:04:26;4.70;;;2.95;;
19808;SDS011;48538;32.784;-96.802;2023-04-25T03:06:53;4.05;;;2.63;;
19808;SDS011;48538;32.784;-96.802;2023-04-25T03:09:20;4.13;;;2.83;;
19808;SDS011;48538;32.784;-96.802;2023-04-25T03:11:46;4.95;;;3.40;;
19808;SDS011;48538;32.784;-96.802;2023-04-25T03:14:12;4.00;;;2.87;;
19808;SDS011;48538;32.784;-96.802;2023-04-25T03:16:39;4.57;;;3.10;;
19808;SDS011;48538;32.784;-96.802;2023-04-25T03:19:05;3.80;;;3.23;;
19808;SDS011;48538;32.784;-96.802;2023-04-25T03:21:32;4.77;;;3.03;;
19808;SDS011;48538;32.784;-96.802;2023-04-25T03:24:02;4.03;;;3.00;;
19808;SDS011;48538;32.784;-96.802;2023-04-25T03:26:30;5.03;;;3.13;;
19808;SDS011;48538;32.784;-96.802;2023-04-25T03:28:56;6.85;;;3.30;;
19808;SDS011;48538;32.784;-96.802;2023-04-25T03:31:22;7.10;;;3.53;;
19808;SDS011;48538;32.784;-96.802;2023-04-25T03:33:48;3.70;;;3.00;;
19808;SDS011;48538;32.784;-96.802;2023-04-25T03:36:15;5.78;;;3.30;;
19808;SDS011;48538;32.784;-96.802;2023-04-25T03:38:41;4.33;;;3.10;;
19808;SDS011;48538;32.784;-96.802;2023-04-25T03:41:07;6.03;;;3.13;;
19808;SDS011;48538;32.784;-96.802;2023-04-25T03:43:34;5.37;;;3.00;;
19808;SDS011;48538;32.784;-96.802;2023-04-25T03:46:00;6.17;;;3.23;;
19808;SDS011;48538;32.784;-96.802;2023-04-25T03:48:27;3.50;;;2.92;;
19808;SDS011;48538;32.784;-96.802;2023-04-25T03:50:53;3.53;;;3.20;;
19808;SDS011;48538;32.784;-96.802;2023-04-25T03:53:20;7.40;;;3.30;;
19808;SDS011;48538;32.784;-96.802;2023-04-25T03:55:46;6.00;;;3.10;;
19808;SDS011;48538;32.784;-96.802;2023-04-25T03:58:13;3.45;;;3.00;;
19808;SDS011;48538;32.784;-96.802;2023-04-25T04:00:39;5.03;;;3.10;;
19808;SDS011;48538;32.784;-96.802;2023-04-25T04:03:05;3.50;;;3.20;;
19808;SDS011;48538;32.784;-96.802;2023-04-25T04:05:32;6.72;;;3.00;;
19808;SDS011;48538;32.784;-96.802;2023-04-25T04:07:58;4.80;;;2.97;;
19808;SDS011;48538;32.784;-96.802;2023-04-25T04:10:24;4.68;;;2.97;;
19808;SDS011;48538;32.784;-96.802;2023-04-25T04:12:51;4.20;;;3.10;;
19808;SDS011;48538;32.784;-96.802;2023-04-25T04:15:17;5.57;;;3.17;;
19808;SDS011;48538;32.784;-96.802;2023-04-25T04:17:44;4.93;;;3.00;;
19808;SDS011;48538;32.784;-96.802;2023-04-25T04:20:12;4.93;;;3.03;;
19808;SDS011;48538;32.784;-96.802;2023-04-25T04:22:38;4.15;;;2.80;;
19808;SDS011;48538;32.784;-96.802;2023-04-25T04:25:04;5.40;;;2.97;;
19808;SDS011;48538;32.784;-96.802;2023-04-25T04:27:31;5.90;;;3.30;;
19808;SDS011;48538;32.784;-96.802;2023-04-25T04:29:58;7.97;;;3.35;;
19808;SDS011;48538;32.784;-96.802;2023-04-25T04:32:24;5.47;;;3.20;;
19808;SDS011;48538;32.784;-96.802;2023-04-25T04:34:50;6.78;;;3.10;;
19808;SDS011;48538;32.784;-96.802;2023-04-25T04:37:17;3.63;;;3.28;;
19808;SDS011;48538;32.784;-96.802;2023-04-25T04:39:43;3.77;;;2.90;;
19808;SDS011;48538;32.784;-96.802;2023-04-25T04:42:10;5.00;;;3.00;;
19808;SDS011;48538;32.784;-96.802;2023-04-25T04:44:36;4.93;;;3.00;;
19808;SDS011;48538;32.784;-96.802;2023-04-25T04:47:04;4.80;;;3.17;;
19808;SDS011;48538;32.784;-96.802;2023-04-25T04:49:31;3.13;;;2.63;;
19808;SDS011;48538;32.784;-96.802;2023-04-25T04:51:58;5.17;;;3.37;;
19808;SDS011;48538;32.784;-96.802;2023-04-25T04:54:25;5.70;;;3.67;;
19808;SDS011;48538;32.784;-96.802;2023-04-25T04:56:52;5.17;;;3.00;;
19808;SDS011;48538;32.784;-96.802;2023-04-25T04:59:18;4.00;;;3.10;;
19808;SDS011;48538;32.784;-96.802;2023-04-25T05:01:44;6.73;;;3.17;;
19808;SDS011;48538;32.784;-96.802;2023-04-25T05:04:12;5.37;;;3.20;;
19808;SDS011;48538;32.784;-96.802;2023-04-25T05:06:38;3.97;;;3.07;;
19808;SDS011;48538;32.784;-96.802;2023-04-25T05:09:04;3.70;;;3.10;;
19808;SDS011;48538;32.784;-96.802;2023-04-25T05:11:31;3.43;;;3.13;;
19808;SDS011;48538;32.784;-96.802;2023-04-25T05:13:57;4.93;;;3.07;;
19808;SDS011;48538;32.784;-96.802;2023-04-25T05:16:23;4.17;;;3.17;;
19808;SDS011;48538;32.784;-96.802;2023-04-25T05:18:50;4.10;;;3.47;;
19808;SDS011;48538;32.784;-96.802;2023-04-25T05:21:16;4.63;;;3.33;;
19808;SDS011;48538;32.784;-96.802;2023-04-25T05:23:43;3.73;;;2.90;;
19808;SDS011;48538;32.784;-96.802;2023-04-25T05:26:09;3.23;;;2.80;;
19808;SDS011;48538;32.784;-96.802;2023-04-25T05:28:39;2.90;;;2.60;;
19808;SDS011;48538;32.784;-96.802;2023-04-25T05:31:07;5.57;;;3.03;;
19808;SDS011;48538;32.784;-96.802;2023-04-25T05:33:35;4.80;;;3.10;;
19808;SDS011;48538;32.784;-96.802;2023-04-25T05:36:01;4.07;;;2.90;;
19808;SDS011;48538;32.784;-96.802;2023-04-25T05:38:27;4.07;;;2.80;;
19808;SDS011;48538;32.784;-96.802;2023-04-25T05:40:54;4.20;;;2.72;;
19808;SDS011;48538;32.784;-96.802;2023-04-25T05:43:21;8.57;;;3.83;;
19808;SDS011;48538;32.784;-96.802;2023-04-25T05:45:47;3.60;;;2.55;;
19808;SDS011;48538;32.784;-96.802;2023-04-25T05:48:13;4.88;;;2.70;;
19808;SDS011;48538;32.784;-96.802;2023-04-25T05:50:40;6.00;;;3.13;;
19808;SDS011;48538;32.784;-96.802;2023-04-25T05:53:06;4.18;;;2.65;;
19808;SDS011;48538;32.784;-96.802;2023-04-25T05:55:32;6.22;;;3.28;;
19808;SDS011;48538;32.784;-96.802;2023-04-25T05:57:58;6.80;;;2.88;;
19808;SDS011;48538;32.784;-96.802;2023-04-25T06:00:25;7.30;;;3.47;;
19808;SDS011;48538;32.784;-96.802;2023-04-25T06:02:51;4.38;;;3.00;;
19808;SDS011;48538;32.784;-96.802;2023-04-25T06:05:18;6.93;;;3.13;;
19808;SDS011;48538;32.784;-96.802;2023-04-25T06:07:45;5.20;;;2.85;;
19808;SDS011;48538;32.784;-96.802;2023-04-25T06:10:11;8.40;;;3.00;;
19808;SDS011;48538;32.784;-96.802;2023-04-25T06:12:37;6.47;;;3.45;;
19808;SDS011;48538;32.784;-96.802;2023-04-25T06:15:04;6.20;;;2.75;;
19808;SDS011;48538;32.784;-96.802;2023-04-25T06:17:31;2.70;;;2.47;;
19808;SDS011;48538;32.784;-96.802;2023-04-25T06:19:58;3.20;;;2.90;;
19808;SDS011;48538;32.784;-96.802;2023-04-25T06:22:24;5.65;;;2.60;;
19808;SDS011;48538;32.784;-96.802;2023-04-25T06:24:51;5.55;;;2.95;;
19808;SDS011;48538;32.784;-96.802;2023-04-25T06:27:17;4.72;;;2.95;;
19808;SDS011;48538;32.784;-96.802;2023-04-25T06:29:43;5.30;;;2.70;;
19808;SDS011;48538;32.784;-96.802;2023-04-25T06:32:10;8.80;;;3.35;;
19808;SDS011;48538;32.784;-96.802;2023-04-25T06:34:36;3.22;;;2.75;;
19808;SDS011;48538;32.784;-96.802;2023-04-25T06:37:02;7.35;;;3.25;;
19808;SDS011;48538;32.784;-96.802;2023-04-25T06:39:28;4.47;;;2.85;;
19808;SDS011;48538;32.784;-96.802;2023-04-25T06:41:55;5.20;;;3.13;;
19808;SDS011;48538;32.784;-96.802;2023-04-25T06:44:21;3.92;;;2.85;;
19808;SDS011;48538;32.784;-96.802;2023-04-25T06:46:49;5.43;;;2.63;;
19808;SDS011;48538;32.784;-96.802;2023-04-25T06:49:18;6.28;;;2.83;;
19808;SDS011;48538;32.784;-96.802;2023-04-25T06:51:44;7.22;;;2.67;;
19808;SDS011;48538;32.784;-96.802;2023-04-25T06:54:11;2.97;;;2.50;;
19808;SDS011;48538;32.784;-96.802;2023-04-25T06:56:37;5.82;;;3.25;;
19808;SDS011;48538;32.784;-96.802;2023-04-25T06:59:03;3.67;;;3.03;;
19808;SDS011;48538;32.784;-96.802;2023-04-25T07:01:29;2.60;;;2.40;;
19808;SDS011;48538;32.784;-96.802;2023-04-25T07:03:56;3.88;;;2.75;;
19808;SDS011;48538;32.784;-96.802;2023-04-25T07:06:22;3.20;;;2.72;;
19808;SDS011;48538;32.784;-96.802;2023-04-25T07:08:50;4.35;;;2.78;;
19808;SDS011;48538;32.784;-96.802;2023-04-25T07:11:17;6.88;;;2.58;;
19808;SDS011;48538;32.784;-96.802;2023-04-25T07:13:43;3.42;;;2.58;;
19808;SDS011;48538;32.784;-96.802;2023-04-25T07:16:09;3.92;;;2.58;;
19808;SDS011;48538;32.784;-96.802;2023-04-25T07:18:36;3.42;;;2.40;;
19808;SDS011;48538;32.784;-96.802;2023-04-25T07:21:02;6.00;;;3.10;;
19808;SDS011;48538;32.784;-96.802;2023-04-25T07:23:28;4.05;;;2.80;;
19808;SDS011;48538;32.784;-96.802;2023-04-25T07:25:55;3.47;;;2.50;;
19808;SDS011;48538;32.784;-96.802;2023-04-25T07:28:21;2.85;;;2.40;;
19808;SDS011;48538;32.784;-96.802;2023-04-25T07:30:47;4.30;;;2.72;;
19808;SDS011;48538;32.784;-96.802;2023-04-25T07:33:14;4.33;;;2.40;;
19808;SDS011;48538;32.784;-96.802;2023-04-25T07:35:40;3.90;;;2.22;;
19808;SDS011;48538;32.784;-96.802;2023-04-25T07:38:06;3.95;;;2.50;;
19808;SDS011;48538;32.784;-96.802;2023-04-25T07:40:33;3.97;;;2.55;;
19808;SDS011;48538;32.784;-96.802;2023-04-25T07:43:00;4.95;;;2.53;;
19808;SDS011;48538;32.784;-96.802;2023-04-25T07:45:27;4.10;;;2.90;;
19808;SDS011;48538;32.784;-96.802;2023-04-25T07:47:53;3.33;;;2.47;;
19808;SDS011;48538;32.784;-96.802;2023-04-25T07:50:20;2.92;;;2.63;;
19808;SDS011;48538;32.784;-96.802;2023-04-25T07:52:46;6.70;;;2.70;;
19808;SDS011;48538;32.784;-96.802;2023-04-25T07:55:13;4.90;;;2.80;;
19808;SDS011;48538;32.784;-96.802;2023-04-25T07:57:39;5.55;;;2.80;;
19808;SDS011;48538;32.784;-96.802;2023-04-25T08:00:06;5.38;;;2.80;;
19808;SDS011;48538;32.784;-96.802;2023-04-25T08:02:36;3.73;;;2.77;;
19808;SDS011;48538;32.784;-96.802;2023-04-25T08:05:02;5.47;;;2.70;;
19808;SDS011;48538;32.784;-96.802;2023-04-25T08:07:29;3.78;;;2.50;;
19808;SDS011;48538;32.784;-96.802;2023-04-25T08:09:55;5.07;;;2.73;;
19808;SDS011;48538;32.784;-96.802;2023-04-25T08:12:21;3.40;;;2.88;;
19808;SDS011;48538;32.784;-96.802;2023-04-25T08:14:48;6.83;;;2.70;;
19808;SDS011;48538;32.784;-96.802;2023-04-25T08:17:14;5.07;;;2.80;;
19808;SDS011;48538;32.784;-96.802;2023-04-25T08:19:40;4.43;;;2.53;;
19808;SDS011;48538;32.784;-96.802;2023-04-25T08:22:07;3.17;;;2.57;;
19808;SDS011;48538;32.784;-96.802;2023-04-25T08:24:33;3.40;;;2.40;;
19808;SDS011;48538;32.784;-96.802;2023-04-25T08:26:59;3.75;;;2.92;;
19808;SDS011;48538;32.784;-96.802;2023-04-25T08:29:26;4.67;;;3.20;;
19808;SDS011;48538;32.784;-96.802;2023-04-25T08:31:53;2.97;;;2.60;;
19808;SDS011;48538;32.784;-96.802;2023-04-25T08:34:19;3.72;;;2.45;;
19808;SDS011;48538;32.784;-96.802;2023-04-25T08:36:46;3.33;;;2.47;;
19808;SDS011;48538;32.784;-96.802;2023-04-25T08:39:12;6.60;;;3.00;;
19808;SDS011;48538;32.784;-96.802;2023-04-25T08:41:39;4.07;;;2.80;;
19808;SDS011;48538;32.784;-96.802;2023-04-25T08:44:06;3.45;;;2.85;;
19808;SDS011;48538;32.784;-96.802;2023-04-25T08:46:37;3.37;;;2.60;;
19808;SDS011;48538;32.784;-96.802;2023-04-25T08:49:07;9.50;;;3.00;;
19808;SDS011;48538;32.784;-96.802;2023-04-25T08:51:34;4.10;;;2.90;;
19808;SDS011;48538;32.784;-96.802;2023-04-25T08:54:09;5.53;;;2.50;;
19808;SDS011;48538;32.784;-96.802;2023-04-25T08:56:38;4.00;;;2.93;;
19808;SDS011;48538;32.784;-96.802;2023-04-25T08:59:12;3.37;;;2.47;;
19808;SDS011;48538;32.784;-96.802;2023-04-25T09:01:39;4.87;;;3.03;;
19808;SDS011;48538;32.784;-96.802;2023-04-25T09:04:06;4.30;;;3.00;;
19808;SDS011;48538;32.784;-96.802;2023-04-25T09:06:32;5.43;;;3.27;;
19808;SDS011;48538;32.784;-96.802;2023-04-25T09:09:03;5.03;;;3.00;;
19808;SDS011;48538;32.784;-96.802;2023-04-25T09:11:31;5.47;;;3.20;;
19808;SDS011;48538;32.784;-96.802;2023-04-25T09:14:17;3.50;;;3.20;;
19808;SDS011;48538;32.784;-96.802;2023-04-25T09:19:27;3.80;;;3.13;;
19808;SDS011;48538;32.784;-96.802;2023-04-25T09:21:56;4.63;;;3.17;;
19808;SDS011;48538;32.784;-96.802;2023-04-25T09:24:33;7.23;;;2.93;;
19808;SDS011;48538;32.784;-96.802;2023-04-25T09:27:05;6.87;;;3.30;;
19808;SDS011;48538;32.784;-96.802;2023-04-25T09:29:32;3.33;;;2.70;;
19808;SDS011;48538;32.784;-96.802;2023-04-25T09:34:41;4.27;;;2.90;;
19808;SDS011;48538;32.784;-96.802;2023-04-25T09:37:09;4.10;;;3.13;;
19808;SDS011;48538;32.784;-96.802;2023-04-25T09:39:36;7.67;;;3.50;;
19808;SDS011;48538;32.784;-96.802;2023-04-25T09:42:04;3.83;;;2.80;;
19808;SDS011;48538;32.784;-96.802;2023-04-25T09:44:31;4.30;;;3.30;;
19808;SDS011;48538;32.784;-96.802;2023-04-25T09:46:57;3.90;;;3.00;;
19808;SDS011;48538;32.784;-96.802;2023-04-25T09:49:25;4.37;;;3.20;;
19808;SDS011;48538;32.784;-96.802;2023-04-25T09:51:55;5.53;;;3.23;;
19808;SDS011;48538;32.784;-96.802;2023-04-25T09:54:25;3.83;;;2.90;;
19808;SDS011;48538;32.784;-96.802;2023-04-25T09:56:53;5.07;;;3.00;;
19808;SDS011;48538;32.784;-96.802;2023-04-25T09:59:20;5.33;;;3.30;;
19808;SDS011;48538;32.784;-96.802;2023-04-25T10:01:48;4.03;;;3.20;;
19808;SDS011;48538;32.784;-96.802;2023-04-25T10:04:19;5.70;;;3.20;;
19808;SDS011;48538;32.784;-96.802;2023-04-25T10:06:51;6.47;;;3.13;;
19808;SDS011;48538;32.784;-96.802;2023-04-25T10:09:20;5.33;;;3.53;;
19808;SDS011;48538;32.784;-96.802;2023-04-25T10:11:48;8.03;;;3.90;;
19808;SDS011;48538;32.784;-96.802;2023-04-25T10:14:16;4.57;;;3.37;;
19808;SDS011;48538;32.784;-96.802;2023-04-25T10:16:44;4.90;;;3.33;;
19808;SDS011;48538;32.784;-96.802;2023-04-25T10:19:12;4.07;;;2.90;;
19808;SDS011;48538;32.784;-96.802;2023-04-25T10:24:37;6.40;;;3.60;;
19808;SDS011;48538;32.784;-96.802;2023-04-25T10:27:04;5.03;;;3.50;;
19808;SDS011;48538;32.784;-96.802;2023-04-25T10:29:37;6.33;;;3.30;;
19808;SDS011;48538;32.784;-96.802;2023-04-25T10:32:04;6.03;;;3.50;;
19808;SDS011;48538;32.784;-96.802;2023-04-25T10:34:40;4.00;;;3.60;;
19808;SDS011;48538;32.784;-96.802;2023-04-25T10:37:09;8.67;;;3.50;;
19808;SDS011;48538;32.784;-96.802;2023-04-25T10:39:37;4.30;;;3.60;;
19808;SDS011;48538;32.784;-96.802;2023-04-25T10:42:05;6.13;;;3.67;;
19808;SDS011;48538;32.784;-96.802;2023-04-25T10:44:33;4.90;;;3.27;;
19808;SDS011;48538;32.784;-96.802;2023-04-25T10:47:02;4.20;;;3.60;;
19808;SDS011;48538;32.784;-96.802;2023-04-25T10:49:34;4.87;;;3.80;;
19808;SDS011;48538;32.784;-96.802;2023-04-25T10:52:25;3.60;;;3.17;;
19808;SDS011;48538;32.784;-96.802;2023-04-25T10:54:56;3.97;;;3.47;;
19808;SDS011;48538;32.784;-96.802;2023-04-25T11:02:52;5.17;;;3.60;;
19808;SDS011;48538;32.784;-96.802;2023-04-25T11:05:30;4.50;;;3.70;;
19808;SDS011;48538;32.784;-96.802;2023-04-25T11:07:58;4.33;;;3.37;;
19808;SDS011;48538;32.784;-96.802;2023-04-25T11:10:26;3.60;;;3.30;;
19808;SDS011;48538;32.784;-96.802;2023-04-25T11:12:54;4.67;;;3.50;;
19808;SDS011;48538;32.784;-96.802;2023-04-25T11:15:21;10.13;;;3.43;;
19808;SDS011;48538;32.784;-96.802;2023-04-25T11:17:47;6.13;;;3.10;;
19808;SDS011;48538;32.784;-96.802;2023-04-25T11:20:14;5.17;;;3.17;;
19808;SDS011;48538;32.784;-96.802;2023-04-25T11:22:40;8.17;;;3.20;;
19808;SDS011;48538;32.784;-96.802;2023-04-25T11:25:09;7.00;;;3.43;;
19808;SDS011;48538;32.784;-96.802;2023-04-25T11:27:37;5.73;;;3.53;;
19808;SDS011;48538;32.784;-96.802;2023-04-25T11:30:21;6.87;;;3.43;;
19808;SDS011;48538;32.784;-96.802;2023-04-25T11:32:48;5.77;;;3.60;;
19808;SDS011;48538;32.784;-96.802;2023-04-25T11:35:15;8.20;;;3.37;;
19808;SDS011;48538;32.784;-96.802;2023-04-25T11:37:42;5.67;;;3.37;;
19808;SDS011;48538;32.784;-96.802;2023-04-25T11:40:09;9.40;;;3.30;;
19808;SDS011;48538;32.784;-96.802;2023-04-25T11:42:37;7.13;;;3.60;;
19808;SDS011;48538;32.784;-96.802;2023-04-25T11:45:10;5.63;;;3.47;;
19808;SDS011;48538;32.784;-96.802;2023-04-25T11:47:37;6.03;;;3.40;;
19808;SDS011;48538;32.784;-96.802;2023-04-25T11:50:05;6.37;;;3.60;;
19808;SDS011;48538;32.784;-96.802;2023-04-25T11:55:16;4.00;;;3.30;;
19808;SDS011;48538;32.784;-96.802;2023-04-25T11:57:44;4.87;;;3.47;;
19808;SDS011;48538;32.784;-96.802;2023-04-25T12:00:14;7.70;;;3.83;;
19808;SDS011;48538;32.784;-96.802;2023-04-25T12:02:46;5.73;;;3.47;;
19808;SDS011;48538;32.784;-96.802;2023-04-25T12:05:16;6.00;;;3.37;;
19808;SDS011;48538;32.784;-96.802;2023-04-25T12:07:42;6.70;;;3.10;;
19808;SDS011;48538;32.784;-96.802;2023-04-25T12:10:10;4.83;;;3.30;;
19808;SDS011;48538;32.784;-96.802;2023-04-25T12:12:38;4.37;;;3.33;;
19808;SDS011;48538;32.784;-96.802;2023-04-25T12:17:41;5.43;;;3.53;;
19808;SDS011;48538;32.784;-96.802;2023-04-25T12:20:10;4.70;;;3.77;;
19808;SDS011;48538;32.784;-96.802;2023-04-25T12:22:44;5.33;;;4.00;;
19808;SDS011;48538;32.784;-96.802;2023-04-25T12:25:12;5.00;;;3.47;;
19808;SDS011;48538;32.784;-96.802;2023-04-25T12:28:11;6.00;;;3.30;;
19808;SDS011;48538;32.784;-96.802;2023-04-25T12:33:20;4.63;;;3.63;;
19808;SDS011;48538;32.784;-96.802;2023-04-25T12:35:47;7.17;;;3.60;;
19808;SDS011;48538;32.784;-96.802;2023-04-25T12:38:20;7.23;;;3.40;;
19808;SDS011;48538;32.784;-96.802;2023-04-25T12:40:57;6.93;;;3.83;;
19808;SDS011;48538;32.784;-96.802;2023-04-25T12:43:24;4.03;;;3.63;;
19808;SDS011;48538;32.784;-96.802;2023-04-25T12:45:50;4.93;;;3.40;;
19808;SDS011;48538;32.784;-96.802;2023-04-25T12:48:18;7.67;;;3.63;;
19808;SDS011;48538;32.784;-96.802;2023-04-25T12:50:45;6.23;;;3.77;;
19808;SDS011;48538;32.784;-96.802;2023-04-25T12:53:16;4.93;;;3.60;;
19808;SDS011;48538;32.784;-96.802;2023-04-25T12:55:46;5.63;;;3.33;;
19808;SDS011;48538;32.784;-96.802;2023-04-25T12:58:13;6.37;;;4.03;;
19808;SDS011;48538;32.784;-96.802;2023-04-25T13:00:41;8.77;;;4.07;;
19808;SDS011;48538;32.784;-96.802;2023-04-25T13:03:08;5.73;;;3.30;;
19808;SDS011;48538;32.784;-96.802;2023-04-25T13:05:36;6.37;;;3.73;;
19808;SDS011;48538;32.784;-96.802;2023-04-25T13:08:03;5.83;;;3.50;;
19808;SDS011;48538;32.784;-96.802;2023-04-25T13:10:29;6.07;;;3.57;;
19808;SDS011;48538;32.784;-96.802;2023-04-25T13:12:56;4.83;;;3.57;;
19808;SDS011;48538;32.784;-96.802;2023-04-25T13:15:22;4.80;;;3.50;;
19808;SDS011;48538;32.784;-96.802;2023-04-25T13:17:48;6.20;;;3.27;;
19808;SDS011;48538;32.784;-96.802;2023-04-25T13:20:15;6.70;;;3.83;;
19808;SDS011;48538;32.784;-96.802;2023-04-25T13:22:42;6.87;;;3.13;;
19808;SDS011;48538;32.784;-96.802;2023-04-25T13:25:10;4.93;;;3.57;;
19808;SDS011;48538;32.784;-96.802;2023-04-25T13:27:37;5.43;;;3.20;;
19808;SDS011;48538;32.784;-96.802;2023-04-25T13:30:05;8.70;;;3.80;;
19808;SDS011;48538;32.784;-96.802;2023-04-25T13:32:36;4.10;;;3.70;;
19808;SDS011;48538;32.784;-96.802;2023-04-25T13:35:03;5.03;;;3.20;;
19808;SDS011;48538;32.784;-96.802;2023-04-25T13:37:31;8.57;;;3.57;;
19808;SDS011;48538;32.784;-96.802;2023-04-25T13:40:01;6.47;;;3.43;;
19808;SDS011;48538;32.784;-96.802;2023-04-25T13:42:30;6.00;;;3.80;;
19808;SDS011;48538;32.784;-96.802;2023-04-25T13:44:57;9.53;;;3.70;;
19808;SDS011;48538;32.784;-96.802;2023-04-25T13:47:23;4.57;;;3.60;;
19808;SDS011;48538;32.784;-96.802;2023-04-25T13:49:50;5.67;;;3.63;;
19808;SDS011;48538;32.784;-96.802;2023-04-25T13:52:17;7.43;;;3.37;;
19808;SDS011;48538;32.784;-96.802;2023-04-25T13:54:43;4.53;;;3.77;;
19808;SDS011;48538;32.784;-96.802;2023-04-25T13:57:10;7.40;;;3.67;;
19808;SDS011;48538;32.784;-96.802;2023-04-25T13:59:36;6.00;;;3.73;;
19808;SDS011;48538;32.784;-96.802;2023-04-25T14:02:03;6.53;;;3.43;;
19808;SDS011;48538;32.784;-96.802;2023-04-25T14:04:29;4.10;;;3.27;;
19808;SDS011;48538;32.784;-96.802;2023-04-25T14:06:56;5.77;;;3.80;;
19808;SDS011;48538;32.784;-96.802;2023-04-25T14:09:22;7.47;;;3.70;;
19808;SDS011;48538;32.784;-96.802;2023-04-25T14:11:53;5.60;;;3.90;;
19808;SDS011;48538;32.784;-96.802;2023-04-25T14:14:20;8.67;;;3.87;;
19808;SDS011;48538;32.784;-96.802;2023-04-25T14:16:48;5.60;;;3.60;;
19808;SDS011;48538;32.784;-96.802;2023-04-25T14:19:15;7.00;;;3.97;;
19808;SDS011;48538;32.784;-96.802;2023-04-25T14:21:45;5.63;;;3.90;;
19808;SDS011;48538;32.784;-96.802;2023-04-25T14:24:12;6.53;;;4.20;;
19808;SDS011;48538;32.784;-96.802;2023-04-25T14:26:39;5.57;;;4.00;;
19808;SDS011;48538;32.784;-96.802;2023-04-25T14:29:06;6.73;;;4.10;;
19808;SDS011;48538;32.784;-96.802;2023-04-25T14:31:34;5.53;;;3.77;;
19808;SDS011;48538;32.784;-96.802;2023-04-25T14:34:01;4.90;;;3.67;;
19808;SDS011;48538;32.784;-96.802;2023-04-25T14:36:28;6.67;;;4.17;;
19808;SDS011;48538;32.784;-96.802;2023-04-25T14:38:54;4.00;;;3.60;;
19808;SDS011;48538;32.784;-96.802;2023-04-25T14:41:21;7.33;;;4.10;;
19808;SDS011;48538;32.784;-96.802;2023-04-25T14:43:48;9.97;;;4.40;;